AUA343 LOWW-KDFW
Flight info
| Callsign | AUA343 |
|---|---|
| Flight time | N/A |
| Altitude | 32000 |
| Route | BUWUT DCT DITIS DCT OKG DCT VELIS DCT SWALM DCT ARPEG DCT RAVLO Y70 SUPEL/N0484F340 Y70 OTBED L60 PENIL M144 BAGSO DCT MCM DCT REVNU DCT RESNO/M083F350 NATB 56N020W/M083F340 NATB JANJO/N0482F360 N708B MIILS DCT ALB J49 PSB DCT HYK/N0466F380 DCT BWG DCT LAJUG Q68 LITTR DCT FEWWW SEEVR4 |
| Aircraft | B772/H-SDE2E3FGHIJ5LORVWXY/LB1D1 |
Departure
| Time | 2026-04-24 13:24 |
|---|---|
| Airport | Vienna International Airport (LOWW) |
Arrival
| Time | N/A |
|---|---|
| Airport | Dallas Fort Worth International Airport (KDFW) |
| Time | Latitude | Longitude | Altitude | Speed | Heading |
|---|---|---|---|---|---|
| 2026-04-24 13:02 | 48.11810 | 16.56504 | 613 ft | 0 kts | 26° |
| 2026-04-24 13:11 | 48.11809 | 16.56503 | 613 ft | 2 kts | 26° |
| 2026-04-24 13:11 | 48.11787 | 16.56485 | 618 ft | 4 kts | 34° |
| 2026-04-24 13:12 | 48.11766 | 16.56460 | 628 ft | 4 kts | 47° |
| 2026-04-24 13:12 | 48.11750 | 16.56428 | 628 ft | 4 kts | 71° |
| 2026-04-24 13:12 | 48.11749 | 16.56396 | 628 ft | 1 kts | 116° |
| 2026-04-24 13:15 | 48.11743 | 16.56412 | 628 ft | 5 kts | 117° |
| 2026-04-24 13:15 | 48.11714 | 16.56491 | 624 ft | 12 kts | 119° |
| 2026-04-24 13:16 | 48.11662 | 16.56638 | 625 ft | 17 kts | 116° |
| 2026-04-24 13:16 | 48.11605 | 16.56831 | 622 ft | 20 kts | 113° |
| 2026-04-24 13:16 | 48.11549 | 16.57005 | 625 ft | 21 kts | 115° |
| 2026-04-24 13:16 | 48.11480 | 16.57223 | 628 ft | 16 kts | 116° |
| 2026-04-24 13:17 | 48.11439 | 16.57350 | 625 ft | 13 kts | 116° |
| 2026-04-24 13:17 | 48.11385 | 16.57387 | 626 ft | 11 kts | 208° |
| 2026-04-24 13:17 | 48.11302 | 16.57319 | 624 ft | 13 kts | 195° |
| 2026-04-24 13:17 | 48.11251 | 16.57413 | 621 ft | 15 kts | 107° |
| 2026-04-24 13:18 | 48.11197 | 16.57595 | 628 ft | 23 kts | 116° |
| 2026-04-24 13:18 | 48.11148 | 16.57738 | 624 ft | 11 kts | 127° |
| 2026-04-24 13:18 | 48.11059 | 16.57789 | 624 ft | 17 kts | 165° |
| 2026-04-24 13:18 | 48.10927 | 16.57844 | 626 ft | 22 kts | 164° |
| 2026-04-24 13:19 | 48.10760 | 16.57918 | 621 ft | 27 kts | 165° |
| 2026-04-24 13:19 | 48.10589 | 16.57987 | 626 ft | 25 kts | 165° |
| 2026-04-24 13:19 | 48.10414 | 16.58060 | 626 ft | 22 kts | 164° |
| 2026-04-24 13:19 | 48.10271 | 16.58121 | 621 ft | 24 kts | 164° |
| 2026-04-24 13:20 | 48.10095 | 16.58195 | 622 ft | 28 kts | 164° |
| 2026-04-24 13:20 | 48.09913 | 16.58272 | 627 ft | 27 kts | 164° |
| 2026-04-24 13:20 | 48.09742 | 16.58345 | 627 ft | 27 kts | 164° |
| 2026-04-24 13:20 | 48.09555 | 16.58423 | 626 ft | 28 kts | 164° |
| 2026-04-24 13:21 | 48.09387 | 16.58496 | 619 ft | 26 kts | 164° |
| 2026-04-24 13:21 | 48.09210 | 16.58571 | 626 ft | 27 kts | 164° |
| 2026-04-24 13:21 | 48.09051 | 16.58637 | 627 ft | 20 kts | 164° |
| 2026-04-24 13:21 | 48.08925 | 16.58690 | 624 ft | 16 kts | 165° |
| 2026-04-24 13:22 | 48.08839 | 16.58742 | 625 ft | 13 kts | 142° |
| 2026-04-24 13:22 | 48.08797 | 16.58828 | 626 ft | 8 kts | 115° |
| 2026-04-24 13:22 | 48.08788 | 16.58893 | 621 ft | 9 kts | 94° |
| 2026-04-24 13:22 | 48.08809 | 16.59008 | 626 ft | 13 kts | 59° |
| 2026-04-24 13:23 | 48.08879 | 16.59092 | 625 ft | 12 kts | 23° |
| 2026-04-24 13:23 | 48.08958 | 16.59099 | 627 ft | 10 kts | 342° |
| 2026-04-24 13:23 | 48.08969 | 16.59092 | 614 ft | 0 kts | 339° |
| 2026-04-24 13:23 | 48.09077 | 16.59041 | 621 ft | 51 kts | 343° |
| 2026-04-24 13:24 | 48.09664 | 16.58788 | 627 ft | 123 kts | 343° |
| 2026-04-24 13:24 | 48.10698 | 16.58350 | 634 ft | 183 kts | 344° |
| 2026-04-24 13:24 | 48.11990 | 16.57849 | 1186 ft | 191 kts | 342° |
| 2026-04-24 13:24 | 48.13233 | 16.57418 | 2324 ft | 185 kts | 355° |
| 2026-04-24 13:25 | 48.14521 | 16.58015 | 2760 ft | 209 kts | 29° |
| 2026-04-24 13:25 | 48.15784 | 16.59242 | 2905 ft | 224 kts | 26° |
| 2026-04-24 13:25 | 48.17165 | 16.60434 | 3218 ft | 235 kts | 24° |
| 2026-04-24 13:25 | 48.18652 | 16.61655 | 3485 ft | 250 kts | 26° |
| 2026-04-24 13:26 | 48.20176 | 16.63003 | 3921 ft | 259 kts | 28° |
| 2026-04-24 13:26 | 48.21727 | 16.64434 | 4441 ft | 264 kts | 27° |
| 2026-04-24 13:26 | 48.22770 | 16.65359 | 4821 ft | 260 kts | 21° |
| 2026-04-24 13:26 | 48.24503 | 16.65883 | 5226 ft | 256 kts | 347° |
| 2026-04-24 13:27 | 48.26131 | 16.64924 | 5779 ft | 249 kts | 327° |
| 2026-04-24 13:27 | 48.27615 | 16.63594 | 6383 ft | 249 kts | 328° |
| 2026-04-24 13:27 | 48.29116 | 16.62282 | 6973 ft | 250 kts | 329° |
| 2026-04-24 13:27 | 48.30624 | 16.60955 | 7490 ft | 253 kts | 329° |
| 2026-04-24 13:28 | 48.32150 | 16.59607 | 8026 ft | 256 kts | 329° |
| 2026-04-24 13:28 | 48.33711 | 16.58224 | 8557 ft | 258 kts | 329° |
| 2026-04-24 13:28 | 48.35266 | 16.56846 | 9119 ft | 260 kts | 329° |
| 2026-04-24 13:28 | 48.36831 | 16.55456 | 9664 ft | 262 kts | 329° |
| 2026-04-24 13:29 | 48.38414 | 16.54050 | 10159 ft | 267 kts | 329° |
| 2026-04-24 13:29 | 48.40062 | 16.52587 | 10315 ft | 284 kts | 329° |
| 2026-04-24 13:29 | 48.41810 | 16.51034 | 10448 ft | 300 kts | 329° |
| 2026-04-24 13:29 | 48.43661 | 16.49389 | 10588 ft | 318 kts | 329° |
| 2026-04-24 13:30 | 48.45570 | 16.47566 | 10665 ft | 331 kts | 321° |
| 2026-04-24 13:30 | 48.47061 | 16.44844 | 10862 ft | 346 kts | 300° |
| 2026-04-24 13:30 | 48.48131 | 16.41528 | 11142 ft | 356 kts | 297° |
| 2026-04-24 13:30 | 48.49222 | 16.38128 | 11637 ft | 363 kts | 298° |
| 2026-04-24 13:31 | 48.50335 | 16.34701 | 12249 ft | 366 kts | 298° |
| 2026-04-24 13:31 | 48.51461 | 16.31245 | 12832 ft | 370 kts | 298° |
| 2026-04-24 13:31 | 48.52589 | 16.27785 | 13384 ft | 374 kts | 298° |
| 2026-04-24 13:31 | 48.53761 | 16.24191 | 13899 ft | 379 kts | 298° |
| 2026-04-24 13:32 | 48.54932 | 16.20606 | 14392 ft | 382 kts | 298° |
| 2026-04-24 13:32 | 48.56090 | 16.17051 | 14942 ft | 384 kts | 298° |
| 2026-04-24 13:32 | 48.57270 | 16.13425 | 15444 ft | 387 kts | 298° |
| 2026-04-24 13:32 | 48.58431 | 16.09672 | 15928 ft | 391 kts | 296° |
| 2026-04-24 13:33 | 48.59516 | 16.05892 | 16389 ft | 395 kts | 295° |
| 2026-04-24 13:33 | 48.60591 | 16.02059 | 16840 ft | 398 kts | 295° |
| 2026-04-24 13:33 | 48.61675 | 15.98192 | 17316 ft | 401 kts | 295° |
| 2026-04-24 13:33 | 48.62770 | 15.94304 | 17778 ft | 404 kts | 295° |
| 2026-04-24 13:34 | 48.63878 | 15.90391 | 18219 ft | 407 kts | 295° |
| 2026-04-24 13:34 | 48.64997 | 15.86451 | 18643 ft | 409 kts | 295° |
| 2026-04-24 13:34 | 48.66123 | 15.82490 | 19024 ft | 411 kts | 295° |
| 2026-04-24 13:34 | 48.67251 | 15.78515 | 19440 ft | 412 kts | 295° |
| 2026-04-24 13:35 | 48.68382 | 15.74520 | 19820 ft | 414 kts | 295° |
| 2026-04-24 13:35 | 48.69518 | 15.70507 | 20228 ft | 416 kts | 295° |
| 2026-04-24 13:35 | 48.70660 | 15.66463 | 20542 ft | 420 kts | 295° |
| 2026-04-24 13:35 | 48.71807 | 15.62399 | 20976 ft | 420 kts | 295° |
| 2026-04-24 13:36 | 48.72954 | 15.58324 | 21375 ft | 421 kts | 295° |
| 2026-04-24 13:36 | 48.74102 | 15.54235 | 21762 ft | 423 kts | 294° |
| 2026-04-24 13:36 | 48.75260 | 15.50103 | 21968 ft | 429 kts | 295° |
| 2026-04-24 13:36 | 48.76424 | 15.45943 | 22415 ft | 428 kts | 294° |
| 2026-04-24 13:37 | 48.77587 | 15.41774 | 22701 ft | 432 kts | 295° |
| 2026-04-24 13:37 | 48.78765 | 15.37548 | 22858 ft | 438 kts | 294° |
| 2026-04-24 13:37 | 48.79952 | 15.33284 | 23255 ft | 439 kts | 294° |
| 2026-04-24 13:37 | 48.81274 | 15.29147 | 23704 ft | 434 kts | 303° |
| 2026-04-24 13:38 | 48.82982 | 15.25387 | 24011 ft | 434 kts | 308° |
| 2026-04-24 13:38 | 48.84858 | 15.21746 | 24150 ft | 440 kts | 309° |
| 2026-04-24 13:38 | 48.86716 | 15.18103 | 24354 ft | 444 kts | 308° |
| 2026-04-24 13:38 | 48.88544 | 15.14322 | 24656 ft | 445 kts | 307° |
| 2026-04-24 13:39 | 48.90339 | 15.10494 | 25012 ft | 445 kts | 306° |
| 2026-04-24 13:39 | 48.92106 | 15.06623 | 25266 ft | 447 kts | 306° |
| 2026-04-24 13:39 | 48.93865 | 15.02713 | 25532 ft | 449 kts | 306° |
| 2026-04-24 13:39 | 48.95625 | 14.98783 | 25798 ft | 451 kts | 306° |
| 2026-04-24 13:40 | 48.97391 | 14.94834 | 26068 ft | 452 kts | 306° |
| 2026-04-24 13:40 | 48.99166 | 14.90868 | 26325 ft | 454 kts | 306° |
| 2026-04-24 13:40 | 49.00946 | 14.86891 | 26619 ft | 455 kts | 306° |
| 2026-04-24 13:40 | 49.02727 | 14.82914 | 26956 ft | 455 kts | 306° |
| 2026-04-24 13:41 | 49.04512 | 14.78923 | 27224 ft | 456 kts | 306° |
| 2026-04-24 13:41 | 49.06304 | 14.74915 | 27446 ft | 459 kts | 306° |
| 2026-04-24 13:41 | 49.08105 | 14.70882 | 27663 ft | 461 kts | 306° |
| 2026-04-24 13:41 | 49.09910 | 14.66834 | 27897 ft | 463 kts | 306° |
| 2026-04-24 13:42 | 49.11721 | 14.62765 | 28124 ft | 464 kts | 306° |
| 2026-04-24 13:42 | 49.13538 | 14.58678 | 28358 ft | 466 kts | 306° |
| 2026-04-24 13:42 | 49.15356 | 14.54578 | 28585 ft | 467 kts | 306° |
| 2026-04-24 13:42 | 49.17178 | 14.50466 | 28800 ft | 468 kts | 306° |
| 2026-04-24 13:43 | 49.19006 | 14.46333 | 29012 ft | 470 kts | 306° |
| 2026-04-24 13:43 | 49.20838 | 14.42187 | 29194 ft | 471 kts | 306° |
| 2026-04-24 13:43 | 49.22672 | 14.38026 | 29396 ft | 472 kts | 306° |
| 2026-04-24 13:43 | 49.24509 | 14.33854 | 29581 ft | 473 kts | 306° |
| 2026-04-24 13:44 | 49.26347 | 14.29671 | 29791 ft | 474 kts | 306° |
| 2026-04-24 13:44 | 49.28185 | 14.25482 | 30055 ft | 473 kts | 306° |
| 2026-04-24 13:44 | 49.30015 | 14.21303 | 30315 ft | 472 kts | 306° |
| 2026-04-24 13:44 | 49.31839 | 14.17132 | 30552 ft | 471 kts | 306° |
| 2026-04-24 13:45 | 49.33656 | 14.12974 | 30894 ft | 467 kts | 306° |
| 2026-04-24 13:45 | 49.35455 | 14.08849 | 31233 ft | 464 kts | 306° |
| 2026-04-24 13:45 | 49.37244 | 14.04738 | 31455 ft | 464 kts | 306° |
| 2026-04-24 13:45 | 49.39035 | 14.00621 | 31638 ft | 464 kts | 306° |
| 2026-04-24 13:46 | 49.40827 | 13.96494 | 31805 ft | 464 kts | 306° |
| 2026-04-24 13:46 | 49.42616 | 13.92368 | 31968 ft | 465 kts | 306° |
| 2026-04-24 13:46 | 49.46210 | 13.84061 | 32044 ft | 467 kts | 306° |
| 2026-04-24 13:47 | 49.49787 | 13.75760 | 32084 ft | 464 kts | 305° |
| 2026-04-24 13:47 | 49.53343 | 13.67485 | 32091 ft | 463 kts | 305° |
| 2026-04-24 13:48 | 49.56886 | 13.59214 | 32098 ft | 462 kts | 305° |
| 2026-04-24 13:48 | 49.60418 | 13.50945 | 32094 ft | 461 kts | 305° |
| 2026-04-24 13:49 | 49.63938 | 13.42677 | 32110 ft | 461 kts | 305° |
| 2026-04-24 13:49 | 49.67455 | 13.34392 | 32105 ft | 461 kts | 304° |
| 2026-04-24 13:50 | 49.70964 | 13.26098 | 32103 ft | 461 kts | 304° |
| 2026-04-24 13:50 | 49.74466 | 13.17794 | 32104 ft | 461 kts | 304° |
| 2026-04-24 13:51 | 49.77963 | 13.09477 | 32094 ft | 461 kts | 304° |
| 2026-04-24 13:51 | 49.81456 | 13.01143 | 32098 ft | 461 kts | 304° |
| 2026-04-24 13:52 | 49.84940 | 12.92805 | 32098 ft | 461 kts | 304° |
| 2026-04-24 13:52 | 49.88422 | 12.84444 | 32100 ft | 462 kts | 304° |
| 2026-04-24 13:53 | 49.91898 | 12.76072 | 32098 ft | 462 kts | 304° |
| 2026-04-24 13:53 | 49.95366 | 12.67690 | 32116 ft | 462 kts | 304° |
| 2026-04-24 13:54 | 49.98831 | 12.59290 | 32108 ft | 462 kts | 303° |
| 2026-04-24 13:54 | 50.02291 | 12.50877 | 32111 ft | 462 kts | 303° |
| 2026-04-24 13:55 | 50.05676 | 12.42395 | 32117 ft | 462 kts | 299° |
| 2026-04-24 13:55 | 50.08202 | 12.33193 | 32121 ft | 463 kts | 290° |
| 2026-04-24 13:56 | 50.10224 | 12.23676 | 32121 ft | 463 kts | 290° |
| 2026-04-24 13:56 | 50.12262 | 12.14160 | 32140 ft | 463 kts | 290° |
| 2026-04-24 13:57 | 50.14313 | 12.04643 | 32143 ft | 463 kts | 290° |
| 2026-04-24 13:57 | 50.16363 | 11.95114 | 32150 ft | 463 kts | 289° |
| 2026-04-24 13:58 | 50.18404 | 11.85586 | 32161 ft | 463 kts | 289° |
| 2026-04-24 13:58 | 50.20437 | 11.76043 | 32155 ft | 463 kts | 289° |
| 2026-04-24 13:59 | 50.22463 | 11.66488 | 32151 ft | 463 kts | 289° |
| 2026-04-24 13:59 | 50.24479 | 11.56935 | 32150 ft | 463 kts | 289° |
| 2026-04-24 14:00 | 50.26487 | 11.47382 | 32143 ft | 463 kts | 289° |
| 2026-04-24 14:00 | 50.28486 | 11.37820 | 32140 ft | 463 kts | 288° |
| 2026-04-24 14:01 | 50.30475 | 11.28253 | 32133 ft | 462 kts | 288° |
| 2026-04-24 14:01 | 50.32456 | 11.18688 | 32129 ft | 462 kts | 288° |
| 2026-04-24 14:02 | 50.34430 | 11.09114 | 32127 ft | 462 kts | 288° |
| 2026-04-24 14:02 | 50.36394 | 10.99537 | 32139 ft | 462 kts | 288° |
| 2026-04-24 14:03 | 50.38349 | 10.89958 | 32141 ft | 461 kts | 288° |
| 2026-04-24 14:03 | 50.40293 | 10.80383 | 32144 ft | 461 kts | 288° |
| 2026-04-24 14:04 | 50.42225 | 10.70823 | 32152 ft | 460 kts | 288° |
| 2026-04-24 14:04 | 50.44149 | 10.61262 | 32145 ft | 459 kts | 287° |
| 2026-04-24 14:05 | 50.46062 | 10.51706 | 32157 ft | 459 kts | 287° |
| 2026-04-24 14:05 | 50.47975 | 10.42142 | 32161 ft | 459 kts | 287° |
| 2026-04-24 14:06 | 50.49587 | 10.34123 | 32160 ft | 459 kts | 287° |
| 2026-04-24 14:06 | 50.51493 | 10.24615 | 32164 ft | 460 kts | 287° |
| 2026-04-24 14:07 | 50.53403 | 10.15028 | 32168 ft | 460 kts | 287° |
| 2026-04-24 14:07 | 50.55317 | 10.05368 | 32175 ft | 460 kts | 287° |
| 2026-04-24 14:08 | 50.57199 | 9.95817 | 32171 ft | 460 kts | 287° |
| 2026-04-24 14:08 | 50.59085 | 9.86203 | 32185 ft | 460 kts | 287° |
| 2026-04-24 14:09 | 50.60964 | 9.76575 | 32176 ft | 460 kts | 286° |
| 2026-04-24 14:09 | 50.62834 | 9.66940 | 32176 ft | 460 kts | 286° |
| 2026-04-24 14:10 | 50.64696 | 9.57306 | 32183 ft | 459 kts | 286° |
| 2026-04-24 14:10 | 50.66545 | 9.47681 | 32171 ft | 459 kts | 286° |
| 2026-04-24 14:11 | 50.68388 | 9.38042 | 32183 ft | 459 kts | 286° |
| 2026-04-24 14:12 | 50.71154 | 9.23588 | 32175 ft | 459 kts | 287° |
| 2026-04-24 14:12 | 50.73722 | 9.14363 | 32180 ft | 460 kts | 297° |
| 2026-04-24 14:13 | 50.76787 | 9.05481 | 32177 ft | 460 kts | 296° |
| 2026-04-24 14:13 | 50.79816 | 8.96564 | 32180 ft | 460 kts | 296° |
| 2026-04-24 14:14 | 50.82819 | 8.87626 | 32177 ft | 460 kts | 296° |
| 2026-04-24 14:14 | 50.87310 | 8.74176 | 32182 ft | 460 kts | 296° |
| 2026-04-24 14:15 | 50.90294 | 8.65201 | 32185 ft | 460 kts | 296° |
| 2026-04-24 14:15 | 50.93268 | 8.56225 | 32181 ft | 460 kts | 296° |
| 2026-04-24 14:16 | 50.96240 | 8.47227 | 32187 ft | 461 kts | 295° |
| 2026-04-24 14:17 | 51.00693 | 8.33681 | 32189 ft | 462 kts | 295° |
| 2026-04-24 14:17 | 51.05662 | 8.20545 | 32209 ft | 464 kts | 301° |
| 2026-04-24 14:18 | 51.09203 | 8.11968 | 32200 ft | 464 kts | 301° |
| 2026-04-24 14:18 | 51.12714 | 8.03367 | 32200 ft | 463 kts | 300° |
| 2026-04-24 14:19 | 51.16196 | 7.94735 | 32207 ft | 463 kts | 300° |
| 2026-04-24 14:19 | 51.19653 | 7.86102 | 32211 ft | 462 kts | 300° |
| 2026-04-24 14:20 | 51.23103 | 7.77456 | 32219 ft | 462 kts | 300° |
| 2026-04-24 14:20 | 51.26548 | 7.68794 | 32210 ft | 462 kts | 300° |
| 2026-04-24 14:21 | 51.29984 | 7.60130 | 32225 ft | 462 kts | 299° |
| 2026-04-24 14:21 | 51.33411 | 7.51459 | 32257 ft | 462 kts | 298° |
| 2026-04-24 14:22 | 51.36839 | 7.42752 | 32235 ft | 462 kts | 298° |
| 2026-04-24 14:23 | 51.41962 | 7.29689 | 32233 ft | 462 kts | 298° |
| 2026-04-24 14:23 | 51.45362 | 7.20984 | 32240 ft | 462 kts | 298° |
| 2026-04-24 14:24 | 51.48763 | 7.12247 | 32228 ft | 461 kts | 298° |
| 2026-04-24 14:24 | 51.52155 | 7.03503 | 32231 ft | 461 kts | 298° |
| 2026-04-24 14:25 | 51.55537 | 6.94755 | 32229 ft | 461 kts | 298° |
| 2026-04-24 14:25 | 51.58916 | 6.85983 | 32240 ft | 461 kts | 298° |
| 2026-04-24 14:26 | 51.62288 | 6.77202 | 32250 ft | 461 kts | 297° |
| 2026-04-24 14:26 | 51.65654 | 6.68406 | 32239 ft | 461 kts | 297° |
| 2026-04-24 14:27 | 51.69009 | 6.59607 | 32233 ft | 461 kts | 297° |
| 2026-04-24 14:27 | 51.72357 | 6.50797 | 32237 ft | 460 kts | 297° |
| 2026-04-24 14:28 | 51.75694 | 6.41984 | 32237 ft | 460 kts | 297° |
| 2026-04-24 14:28 | 51.79030 | 6.33143 | 32318 ft | 463 kts | 297° |
| 2026-04-24 14:28 | 51.80703 | 6.28699 | 32504 ft | 463 kts | 297° |
| 2026-04-24 14:29 | 51.82373 | 6.24255 | 32721 ft | 462 kts | 297° |
| 2026-04-24 14:29 | 51.84034 | 6.19830 | 32971 ft | 460 kts | 297° |
| 2026-04-24 14:29 | 51.85695 | 6.15396 | 33192 ft | 460 kts | 297° |
| 2026-04-24 14:29 | 51.87348 | 6.10973 | 33388 ft | 459 kts | 297° |
| 2026-04-24 14:30 | 51.88443 | 6.08040 | 33529 ft | 459 kts | 297° |
| 2026-04-24 14:30 | 51.90648 | 6.02121 | 33831 ft | 458 kts | 297° |
| 2026-04-24 14:30 | 51.92288 | 5.97712 | 34058 ft | 457 kts | 297° |
| 2026-04-24 14:30 | 51.93905 | 5.93357 | 34159 ft | 457 kts | 297° |
| 2026-04-24 14:31 | 51.95546 | 5.88925 | 34215 ft | 459 kts | 297° |
| 2026-04-24 14:31 | 51.98828 | 5.80043 | 34253 ft | 459 kts | 297° |
| 2026-04-24 14:32 | 52.02105 | 5.71149 | 34262 ft | 458 kts | 297° |
| 2026-04-24 14:32 | 52.05364 | 5.62268 | 34268 ft | 458 kts | 297° |
| 2026-04-24 14:33 | 52.08612 | 5.53387 | 34272 ft | 457 kts | 297° |
| 2026-04-24 14:33 | 52.11850 | 5.44505 | 34276 ft | 456 kts | 297° |
| 2026-04-24 14:34 | 52.15081 | 5.35607 | 34280 ft | 456 kts | 297° |
| 2026-04-24 14:34 | 52.18299 | 5.26716 | 34291 ft | 456 kts | 296° |
| 2026-04-24 14:35 | 52.21507 | 5.17819 | 34281 ft | 455 kts | 296° |
| 2026-04-24 14:35 | 52.24702 | 5.08929 | 34285 ft | 454 kts | 296° |
| 2026-04-24 14:36 | 52.27880 | 5.00054 | 34290 ft | 452 kts | 296° |
| 2026-04-24 14:36 | 52.31046 | 4.91183 | 34302 ft | 452 kts | 296° |
| 2026-04-24 14:37 | 52.34203 | 4.82301 | 34303 ft | 451 kts | 296° |
| 2026-04-24 14:37 | 52.37344 | 4.73436 | 34297 ft | 451 kts | 296° |
| 2026-04-24 14:38 | 52.40480 | 4.64554 | 34285 ft | 450 kts | 296° |
| 2026-04-24 14:38 | 52.43609 | 4.55660 | 34300 ft | 450 kts | 296° |
| 2026-04-24 14:39 | 52.46730 | 4.46759 | 34297 ft | 450 kts | 295° |
| 2026-04-24 14:39 | 52.49841 | 4.37851 | 34298 ft | 450 kts | 295° |
| 2026-04-24 14:40 | 52.52942 | 4.28941 | 34297 ft | 449 kts | 295° |
| 2026-04-24 14:40 | 52.56034 | 4.20026 | 34307 ft | 449 kts | 295° |
| 2026-04-24 14:41 | 52.59118 | 4.11102 | 34306 ft | 449 kts | 295° |
| 2026-04-24 14:41 | 52.62195 | 4.02168 | 34303 ft | 449 kts | 295° |
| 2026-04-24 14:42 | 52.64748 | 3.94728 | 34312 ft | 449 kts | 295° |
| 2026-04-24 14:42 | 52.68330 | 3.84253 | 34309 ft | 449 kts | 294° |
| 2026-04-24 14:43 | 52.71386 | 3.75283 | 34337 ft | 449 kts | 294° |
| 2026-04-24 14:43 | 52.74435 | 3.66300 | 34325 ft | 449 kts | 294° |
| 2026-04-24 14:44 | 52.77479 | 3.57296 | 34333 ft | 449 kts | 294° |
| 2026-04-24 14:44 | 52.80489 | 3.48365 | 34338 ft | 449 kts | 294° |
| 2026-04-24 14:45 | 52.83517 | 3.39343 | 34330 ft | 449 kts | 294° |
| 2026-04-24 14:45 | 52.86541 | 3.30304 | 34329 ft | 449 kts | 294° |
| 2026-04-24 14:46 | 52.89557 | 3.21256 | 34322 ft | 449 kts | 293° |
| 2026-04-24 14:46 | 52.91987 | 3.11828 | 34323 ft | 443 kts | 284° |
| 2026-04-24 14:47 | 52.93233 | 3.03589 | 34322 ft | 439 kts | 278° |
| 2026-04-24 14:47 | 52.94709 | 2.92053 | 34324 ft | 441 kts | 278° |
| 2026-04-24 14:48 | 52.95994 | 2.82106 | 34329 ft | 442 kts | 278° |
| 2026-04-24 14:48 | 52.97078 | 2.73738 | 34327 ft | 443 kts | 278° |
| 2026-04-24 14:49 | 52.98368 | 2.63736 | 34320 ft | 445 kts | 279° |
| 2026-04-24 14:49 | 52.99657 | 2.53661 | 34338 ft | 448 kts | 279° |
| 2026-04-24 14:50 | 53.00947 | 2.43507 | 34340 ft | 451 kts | 279° |
| 2026-04-24 14:50 | 53.02230 | 2.33338 | 34339 ft | 454 kts | 279° |
| 2026-04-24 14:51 | 53.03527 | 2.22976 | 34338 ft | 456 kts | 279° |
| 2026-04-24 14:51 | 53.04803 | 2.12722 | 34330 ft | 457 kts | 279° |
| 2026-04-24 14:52 | 53.06078 | 2.02391 | 34337 ft | 456 kts | 279° |
| 2026-04-24 14:52 | 53.07345 | 1.92058 | 34329 ft | 456 kts | 279° |
| 2026-04-24 14:53 | 53.08610 | 1.81674 | 34336 ft | 455 kts | 279° |
| 2026-04-24 14:53 | 53.09857 | 1.71352 | 34333 ft | 454 kts | 279° |
| 2026-04-24 14:54 | 53.11091 | 1.61063 | 34333 ft | 453 kts | 279° |
| 2026-04-24 14:54 | 53.12307 | 1.50837 | 34336 ft | 453 kts | 279° |
| 2026-04-24 14:55 | 53.13530 | 1.40475 | 34337 ft | 453 kts | 279° |
| 2026-04-24 14:55 | 53.14728 | 1.30246 | 34335 ft | 453 kts | 279° |
| 2026-04-24 14:56 | 53.15927 | 1.19930 | 34337 ft | 454 kts | 279° |
| 2026-04-24 14:56 | 53.17117 | 1.09601 | 34337 ft | 454 kts | 279° |
| 2026-04-24 14:57 | 53.18299 | 0.99258 | 34336 ft | 455 kts | 279° |
| 2026-04-24 14:57 | 53.19475 | 0.88889 | 34337 ft | 455 kts | 279° |
| 2026-04-24 14:58 | 53.20645 | 0.78492 | 34335 ft | 456 kts | 279° |
| 2026-04-24 14:58 | 53.21807 | 0.68084 | 34335 ft | 457 kts | 279° |
| 2026-04-24 14:59 | 53.22960 | 0.57660 | 34334 ft | 457 kts | 279° |
| 2026-04-24 14:59 | 53.24106 | 0.47230 | 34332 ft | 457 kts | 279° |
| 2026-04-24 15:00 | 53.25241 | 0.36784 | 34345 ft | 457 kts | 279° |
| 2026-04-24 15:00 | 53.26360 | 0.26314 | 34339 ft | 459 kts | 279° |
| 2026-04-24 15:01 | 53.27475 | 0.15798 | 34338 ft | 461 kts | 279° |
| 2026-04-24 15:01 | 53.28591 | 0.05210 | 34336 ft | 463 kts | 279° |
| 2026-04-24 15:02 | 53.29697 | -0.05411 | 34321 ft | 465 kts | 279° |
| 2026-04-24 15:02 | 53.30796 | -0.16077 | 34322 ft | 466 kts | 279° |
| 2026-04-24 15:03 | 53.31889 | -0.26756 | 34304 ft | 466 kts | 279° |
| 2026-04-24 15:03 | 53.32973 | -0.37440 | 34300 ft | 466 kts | 279° |
| 2026-04-24 15:04 | 53.34049 | -0.48121 | 34300 ft | 465 kts | 279° |
| 2026-04-24 15:04 | 53.35122 | -0.58786 | 34304 ft | 464 kts | 279° |
| 2026-04-24 15:05 | 53.36179 | -0.69437 | 34304 ft | 463 kts | 279° |
| 2026-04-24 15:05 | 53.37209 | -0.80081 | 34303 ft | 463 kts | 279° |
| 2026-04-24 15:06 | 53.38231 | -0.90720 | 34312 ft | 462 kts | 278° |
| 2026-04-24 15:06 | 53.39271 | -1.01330 | 34308 ft | 462 kts | 279° |
| 2026-04-24 15:07 | 53.40307 | -1.11954 | 34309 ft | 461 kts | 279° |
| 2026-04-24 15:07 | 53.41312 | -1.22572 | 34310 ft | 461 kts | 279° |
| 2026-04-24 15:08 | 53.42286 | -1.33215 | 34306 ft | 461 kts | 279° |
| 2026-04-24 15:08 | 53.43284 | -1.43834 | 34303 ft | 461 kts | 279° |
| 2026-04-24 15:09 | 53.44273 | -1.54466 | 34303 ft | 461 kts | 279° |
| 2026-04-24 15:09 | 53.45241 | -1.65106 | 34296 ft | 461 kts | 279° |
| 2026-04-24 15:10 | 53.46203 | -1.75738 | 34299 ft | 461 kts | 279° |
| 2026-04-24 15:10 | 53.47143 | -1.86296 | 34295 ft | 461 kts | 279° |
| 2026-04-24 15:11 | 53.48066 | -1.96948 | 34289 ft | 461 kts | 279° |
| 2026-04-24 15:11 | 53.48982 | -2.07598 | 34249 ft | 461 kts | 279° |
| 2026-04-24 15:12 | 53.49889 | -2.18238 | 34277 ft | 460 kts | 279° |
| 2026-04-24 15:12 | 53.51236 | -2.34153 | 34287 ft | 458 kts | 279° |
| 2026-04-24 15:13 | 53.52123 | -2.44754 | 34279 ft | 458 kts | 279° |
| 2026-04-24 15:13 | 53.52998 | -2.55330 | 34284 ft | 457 kts | 279° |
| 2026-04-24 15:14 | 53.53861 | -2.65900 | 34281 ft | 456 kts | 279° |
| 2026-04-24 15:14 | 53.54715 | -2.76461 | 34284 ft | 455 kts | 279° |
| 2026-04-24 15:15 | 53.55560 | -2.87012 | 34297 ft | 455 kts | 279° |
| 2026-04-24 15:15 | 53.56394 | -2.97564 | 34293 ft | 455 kts | 279° |
| 2026-04-24 15:16 | 53.57219 | -3.08129 | 34293 ft | 456 kts | 279° |
| 2026-04-24 15:16 | 53.58036 | -3.18707 | 34286 ft | 456 kts | 278° |
| 2026-04-24 15:17 | 53.58846 | -3.29322 | 34300 ft | 458 kts | 278° |
| 2026-04-24 15:17 | 53.59650 | -3.39987 | 34293 ft | 461 kts | 278° |
| 2026-04-24 15:18 | 53.60449 | -3.50707 | 34285 ft | 462 kts | 278° |
| 2026-04-24 15:18 | 53.61242 | -3.61473 | 34279 ft | 464 kts | 278° |
| 2026-04-24 15:19 | 53.61947 | -3.72285 | 34270 ft | 464 kts | 275° |
| 2026-04-24 15:19 | 53.62341 | -3.83150 | 34284 ft | 465 kts | 274° |
| 2026-04-24 15:20 | 53.62774 | -3.94027 | 34280 ft | 465 kts | 275° |
| 2026-04-24 15:20 | 53.63216 | -4.04906 | 34271 ft | 465 kts | 274° |
| 2026-04-24 15:21 | 53.63633 | -4.15785 | 34272 ft | 465 kts | 274° |
| 2026-04-24 15:21 | 53.64038 | -4.26651 | 34264 ft | 464 kts | 274° |
| 2026-04-24 15:22 | 53.64431 | -4.37506 | 34276 ft | 464 kts | 273° |
| 2026-04-24 15:23 | 53.64998 | -4.53788 | 34275 ft | 464 kts | 273° |
| 2026-04-24 15:23 | 53.65547 | -4.70074 | 34274 ft | 464 kts | 273° |
| 2026-04-24 15:25 | 53.66376 | -4.95410 | 34285 ft | 465 kts | 272° |
| 2026-04-24 15:26 | 53.67292 | -5.24518 | 34275 ft | 466 kts | 272° |
| 2026-04-24 15:27 | 53.69114 | -5.57120 | 34275 ft | 469 kts | 285° |
| 2026-04-24 15:29 | 53.74571 | -5.88884 | 34281 ft | 470 kts | 284° |
| 2026-04-24 15:31 | 53.80439 | -6.24361 | 34268 ft | 469 kts | 284° |
| 2026-04-24 15:33 | 53.87337 | -6.67005 | 34279 ft | 470 kts | 283° |
| 2026-04-24 15:34 | 53.91606 | -6.93785 | 34246 ft | 471 kts | 284° |
| 2026-04-24 15:35 | 53.96646 | -7.20294 | 34234 ft | 472 kts | 285° |
| 2026-04-24 15:36 | 53.98639 | -7.30938 | 34262 ft | 474 kts | 285° |
| 2026-04-24 15:36 | 54.01618 | -7.47128 | 34242 ft | 482 kts | 285° |
| 2026-04-24 15:37 | 54.03617 | -7.58077 | 34239 ft | 487 kts | 285° |
| 2026-04-24 15:37 | 54.05621 | -7.69107 | 34229 ft | 489 kts | 285° |
| 2026-04-24 15:38 | 54.07624 | -7.80196 | 34234 ft | 491 kts | 285° |
| 2026-04-24 15:38 | 54.09619 | -7.91307 | 34213 ft | 490 kts | 284° |
| 2026-04-24 15:39 | 54.11598 | -8.02403 | 34217 ft | 489 kts | 284° |
| 2026-04-24 15:39 | 54.13563 | -8.13480 | 34206 ft | 487 kts | 284° |
| 2026-04-24 15:40 | 54.15510 | -8.24529 | 34215 ft | 486 kts | 284° |
| 2026-04-24 15:40 | 54.17430 | -8.35493 | 34208 ft | 485 kts | 284° |
| 2026-04-24 15:41 | 54.19349 | -8.46515 | 34212 ft | 484 kts | 284° |
| 2026-04-24 15:41 | 54.21262 | -8.57568 | 34222 ft | 485 kts | 283° |
| 2026-04-24 15:42 | 54.23166 | -8.68647 | 34214 ft | 487 kts | 283° |
| 2026-04-24 15:42 | 54.25066 | -8.79769 | 34207 ft | 488 kts | 283° |
| 2026-04-24 15:43 | 54.26959 | -8.90920 | 34215 ft | 489 kts | 283° |
| 2026-04-24 15:43 | 54.28846 | -9.02105 | 34207 ft | 490 kts | 283° |
| 2026-04-24 15:44 | 54.30727 | -9.13320 | 34203 ft | 491 kts | 283° |
| 2026-04-24 15:44 | 54.32602 | -9.24582 | 34202 ft | 492 kts | 283° |
| 2026-04-24 15:45 | 54.34470 | -9.35873 | 34202 ft | 493 kts | 283° |
| 2026-04-24 15:45 | 54.36333 | -9.47210 | 34196 ft | 494 kts | 282° |
| 2026-04-24 15:46 | 54.38186 | -9.58557 | 34201 ft | 494 kts | 282° |
| 2026-04-24 15:46 | 54.40029 | -9.69920 | 34206 ft | 495 kts | 282° |
| 2026-04-24 15:47 | 54.41867 | -9.81326 | 34202 ft | 496 kts | 282° |
| 2026-04-24 15:47 | 54.43697 | -9.92765 | 34199 ft | 497 kts | 282° |
| 2026-04-24 15:48 | 54.45521 | -10.04231 | 34201 ft | 498 kts | 282° |
| 2026-04-24 15:48 | 54.47310 | -10.15720 | 34201 ft | 497 kts | 280° |
| 2026-04-24 15:49 | 54.48834 | -10.27310 | 34196 ft | 497 kts | 278° |
| 2026-04-24 15:49 | 54.50269 | -10.38957 | 34201 ft | 498 kts | 278° |
| 2026-04-24 15:50 | 54.51727 | -10.50641 | 34201 ft | 500 kts | 278° |
| 2026-04-24 15:50 | 54.53204 | -10.62333 | 34196 ft | 501 kts | 278° |
| 2026-04-24 15:51 | 54.54683 | -10.74062 | 34190 ft | 501 kts | 279° |
| 2026-04-24 15:51 | 54.56151 | -10.85811 | 34196 ft | 502 kts | 279° |
| 2026-04-24 15:52 | 54.57610 | -10.97603 | 34201 ft | 504 kts | 279° |
| 2026-04-24 15:52 | 54.59062 | -11.09451 | 34196 ft | 506 kts | 278° |
| 2026-04-24 15:53 | 54.60507 | -11.21338 | 34195 ft | 507 kts | 278° |
| 2026-04-24 15:53 | 54.61943 | -11.33256 | 34190 ft | 508 kts | 278° |
| 2026-04-24 15:54 | 54.63331 | -11.44882 | 34193 ft | 508 kts | 278° |
| 2026-04-24 15:54 | 54.64746 | -11.56830 | 34194 ft | 508 kts | 278° |
| 2026-04-24 15:55 | 54.66147 | -11.68776 | 34192 ft | 507 kts | 278° |
| 2026-04-24 15:55 | 54.67535 | -11.80714 | 34190 ft | 506 kts | 278° |
| 2026-04-24 15:56 | 54.68909 | -11.92643 | 34194 ft | 506 kts | 278° |
| 2026-04-24 15:56 | 54.70269 | -12.04572 | 34193 ft | 506 kts | 278° |
| 2026-04-24 15:57 | 54.71620 | -12.16523 | 34193 ft | 507 kts | 278° |
| 2026-04-24 15:57 | 54.72962 | -12.28502 | 34186 ft | 508 kts | 278° |
| 2026-04-24 15:58 | 54.74295 | -12.40520 | 34188 ft | 509 kts | 278° |
| 2026-04-24 15:58 | 54.75537 | -12.51819 | 34186 ft | 509 kts | 277° |
| 2026-04-24 15:59 | 54.76851 | -12.63894 | 34191 ft | 511 kts | 277° |
| 2026-04-24 15:59 | 54.78195 | -12.76361 | 34184 ft | 513 kts | 277° |
| 2026-04-24 16:00 | 54.79493 | -12.88527 | 34180 ft | 514 kts | 277° |
| 2026-04-24 16:00 | 54.80785 | -13.00754 | 34180 ft | 515 kts | 277° |
| 2026-04-24 16:01 | 54.82064 | -13.12980 | 34202 ft | 516 kts | 277° |
| 2026-04-24 16:01 | 54.83333 | -13.25242 | 34177 ft | 517 kts | 277° |
| 2026-04-24 16:02 | 54.84590 | -13.37520 | 34171 ft | 517 kts | 277° |
| 2026-04-24 16:02 | 54.85837 | -13.49814 | 34174 ft | 517 kts | 277° |
| 2026-04-24 16:03 | 54.87059 | -13.61976 | 34142 ft | 497 kts | 277° |
| 2026-04-24 16:03 | 54.87643 | -13.67797 | 34138 ft | 481 kts | 276° |
| 2026-04-24 16:03 | 54.88206 | -13.73459 | 34186 ft | 475 kts | 276° |
| 2026-04-24 16:04 | 54.89865 | -13.84602 | 34173 ft | 485 kts | 300° |
| 2026-04-24 16:04 | 54.91964 | -13.89190 | 34152 ft | 489 kts | 321° |
| 2026-04-24 16:04 | 54.94829 | -13.92318 | 34186 ft | 486 kts | 341° |
| 2026-04-24 16:05 | 55.01408 | -13.93528 | 34166 ft | 476 kts | 13° |
| 2026-04-24 16:05 | 55.04609 | -13.92196 | 34176 ft | 471 kts | 25° |
| 2026-04-24 16:06 | 55.09888 | -13.86426 | 34166 ft | 432 kts | 54° |
| 2026-04-24 16:06 | 55.11536 | -13.82160 | 34135 ft | 419 kts | 71° |
| 2026-04-24 16:06 | 55.12897 | -13.72525 | 34159 ft | 409 kts | 92° |
| 2026-04-24 16:07 | 55.12710 | -13.67637 | 34171 ft | 401 kts | 104° |
| 2026-04-24 16:07 | 55.11255 | -13.53124 | 34181 ft | 408 kts | 103° |
| 2026-04-24 16:08 | 55.09888 | -13.38386 | 34171 ft | 407 kts | 103° |
| 2026-04-24 16:09 | 55.08457 | -13.29081 | 34186 ft | 392 kts | 123° |
| 2026-04-24 16:09 | 55.06866 | -13.25237 | 34188 ft | 392 kts | 134° |
| 2026-04-24 16:09 | 55.02534 | -13.19493 | 34176 ft | 396 kts | 155° |
| 2026-04-24 16:10 | 54.94801 | -13.14713 | 34188 ft | 399 kts | 171° |
| 2026-04-24 16:11 | 54.89314 | -13.16360 | 34220 ft | 417 kts | 205° |
| 2026-04-24 16:11 | 54.86952 | -13.19403 | 34180 ft | 430 kts | 221° |
| 2026-04-24 16:11 | 54.85095 | -13.23556 | 34183 ft | 444 kts | 236° |
| 2026-04-24 16:12 | 54.83293 | -13.34024 | 34173 ft | 469 kts | 264° |
| 2026-04-24 16:12 | 54.83524 | -13.39735 | 34184 ft | 480 kts | 278° |
| 2026-04-24 16:12 | 54.85129 | -13.51134 | 34185 ft | 492 kts | 282° |
| 2026-04-24 16:13 | 54.85982 | -13.56913 | 34182 ft | 496 kts | 281° |
| 2026-04-24 16:14 | 54.88987 | -13.80673 | 34169 ft | 511 kts | 278° |
| 2026-04-24 16:14 | 54.90754 | -13.99073 | 34167 ft | 518 kts | 276° |
| 2026-04-24 16:15 | 54.92457 | -14.17442 | 34147 ft | 509 kts | 276° |
| 2026-04-24 16:16 | 54.94171 | -14.35643 | 34148 ft | 509 kts | 276° |
| 2026-04-24 16:17 | 54.96976 | -14.66112 | 34141 ft | 511 kts | 276° |
| 2026-04-24 16:18 | 54.99196 | -14.90865 | 34176 ft | 521 kts | 276° |
| 2026-04-24 16:19 | 55.01934 | -15.09235 | 34135 ft | 530 kts | 290° |
| 2026-04-24 16:20 | 55.06056 | -15.27156 | 34126 ft | 531 kts | 290° |
| 2026-04-24 16:20 | 55.10091 | -15.45139 | 34124 ft | 530 kts | 289° |
| 2026-04-24 16:21 | 55.14049 | -15.63144 | 34125 ft | 529 kts | 289° |
| 2026-04-24 16:22 | 55.16672 | -15.75163 | 34121 ft | 529 kts | 289° |
| 2026-04-24 16:22 | 55.20589 | -15.93220 | 34114 ft | 529 kts | 289° |
| 2026-04-24 16:23 | 55.23188 | -16.05286 | 34115 ft | 529 kts | 289° |
| 2026-04-24 16:24 | 55.27061 | -16.23393 | 34122 ft | 530 kts | 289° |
| 2026-04-24 16:24 | 55.29638 | -16.35545 | 34112 ft | 535 kts | 289° |
| 2026-04-24 16:25 | 55.32232 | -16.47845 | 34113 ft | 540 kts | 289° |
| 2026-04-24 16:25 | 55.34838 | -16.60276 | 34109 ft | 544 kts | 289° |
| 2026-04-24 16:26 | 55.38313 | -16.76972 | 34109 ft | 548 kts | 289° |
| 2026-04-24 16:27 | 55.42233 | -16.95972 | 34103 ft | 552 kts | 288° |
| 2026-04-24 16:27 | 55.44839 | -17.08701 | 34097 ft | 553 kts | 288° |
| 2026-04-24 16:28 | 55.47434 | -17.21460 | 34094 ft | 553 kts | 288° |
| 2026-04-24 16:28 | 55.51298 | -17.40613 | 34094 ft | 552 kts | 287° |
| 2026-04-24 16:29 | 55.53856 | -17.53396 | 34097 ft | 552 kts | 287° |
| 2026-04-24 16:30 | 55.58915 | -17.78928 | 34087 ft | 549 kts | 287° |
| 2026-04-24 16:30 | 55.61401 | -17.91593 | 34094 ft | 548 kts | 287° |
| 2026-04-24 16:31 | 55.63885 | -18.04338 | 34083 ft | 547 kts | 287° |
| 2026-04-24 16:31 | 55.66349 | -18.17063 | 34085 ft | 546 kts | 287° |
| 2026-04-24 16:32 | 55.68802 | -18.29815 | 34096 ft | 547 kts | 287° |
| 2026-04-24 16:32 | 55.71250 | -18.42624 | 34093 ft | 548 kts | 287° |
| 2026-04-24 16:33 | 55.73683 | -18.55448 | 34073 ft | 548 kts | 286° |
| 2026-04-24 16:33 | 55.76105 | -18.68287 | 34088 ft | 548 kts | 286° |
| 2026-04-24 16:34 | 55.78512 | -18.81136 | 34085 ft | 548 kts | 286° |
| 2026-04-24 16:34 | 55.80906 | -18.94013 | 34109 ft | 550 kts | 286° |
| 2026-04-24 16:35 | 55.83295 | -19.06944 | 34089 ft | 551 kts | 286° |
| 2026-04-24 16:35 | 55.85675 | -19.19920 | 34081 ft | 552 kts | 286° |
| 2026-04-24 16:36 | 55.88043 | -19.32921 | 34071 ft | 552 kts | 285° |
| 2026-04-24 16:36 | 55.90395 | -19.45919 | 34077 ft | 551 kts | 285° |
| 2026-04-24 16:37 | 55.92732 | -19.58926 | 34118 ft | 550 kts | 285° |
| 2026-04-24 16:37 | 55.95054 | -19.71951 | 34083 ft | 551 kts | 285° |
| 2026-04-24 16:38 | 55.97367 | -19.85010 | 34080 ft | 552 kts | 285° |
| 2026-04-24 16:38 | 55.99670 | -19.98102 | 34079 ft | 553 kts | 285° |
| 2026-04-24 16:39 | 56.01789 | -20.11285 | 34069 ft | 551 kts | 282° |
| 2026-04-24 16:39 | 56.03607 | -20.24589 | 34080 ft | 550 kts | 281° |
| 2026-04-24 16:40 | 56.05386 | -20.37825 | 34082 ft | 552 kts | 281° |
| 2026-04-24 16:40 | 56.07223 | -20.51171 | 34075 ft | 553 kts | 282° |
| 2026-04-24 16:41 | 56.09078 | -20.64538 | 34081 ft | 553 kts | 282° |
| 2026-04-24 16:41 | 56.10924 | -20.77926 | 34071 ft | 554 kts | 281° |
| 2026-04-24 16:42 | 56.12753 | -20.91347 | 34069 ft | 554 kts | 281° |
| 2026-04-24 16:42 | 56.14563 | -21.04773 | 34075 ft | 555 kts | 281° |
| 2026-04-24 16:43 | 56.16362 | -21.18243 | 34069 ft | 555 kts | 281° |
| 2026-04-24 16:43 | 56.18146 | -21.31721 | 34069 ft | 555 kts | 281° |
| 2026-04-24 16:44 | 56.19917 | -21.45220 | 34072 ft | 555 kts | 281° |
| 2026-04-24 16:44 | 56.21675 | -21.58738 | 34068 ft | 555 kts | 281° |
| 2026-04-24 16:45 | 56.23417 | -21.72264 | 34078 ft | 557 kts | 280° |
| 2026-04-24 16:45 | 56.25149 | -21.85845 | 34069 ft | 557 kts | 280° |
| 2026-04-24 16:46 | 56.26866 | -21.99435 | 34066 ft | 557 kts | 280° |
| 2026-04-24 16:46 | 56.28567 | -22.13020 | 34066 ft | 556 kts | 280° |
| 2026-04-24 16:47 | 56.30251 | -22.26607 | 34070 ft | 556 kts | 280° |
| 2026-04-24 16:47 | 56.31920 | -22.40205 | 34067 ft | 556 kts | 279° |
| 2026-04-24 16:48 | 56.33576 | -22.53831 | 34075 ft | 556 kts | 279° |
| 2026-04-24 16:48 | 56.35216 | -22.67455 | 34065 ft | 556 kts | 279° |
| 2026-04-24 16:49 | 56.36842 | -22.81102 | 34053 ft | 556 kts | 279° |
| 2026-04-24 16:49 | 56.38451 | -22.94748 | 34076 ft | 556 kts | 279° |
| 2026-04-24 16:50 | 56.40044 | -23.08396 | 34081 ft | 556 kts | 279° |
| 2026-04-24 16:50 | 56.41623 | -23.22061 | 34069 ft | 556 kts | 279° |
| 2026-04-24 16:51 | 56.43189 | -23.35749 | 34065 ft | 556 kts | 279° |
| 2026-04-24 16:51 | 56.44737 | -23.49434 | 34063 ft | 556 kts | 278° |
| 2026-04-24 16:52 | 56.46274 | -23.63161 | 34065 ft | 556 kts | 278° |
| 2026-04-24 16:52 | 56.47793 | -23.76870 | 34093 ft | 556 kts | 279° |
| 2026-04-24 16:53 | 56.49299 | -23.90624 | 34067 ft | 558 kts | 278° |
| 2026-04-24 16:53 | 56.50795 | -24.04422 | 34064 ft | 559 kts | 278° |
| 2026-04-24 16:54 | 56.52268 | -24.18157 | 34064 ft | 560 kts | 278° |
| 2026-04-24 16:54 | 56.53738 | -24.32022 | 34050 ft | 561 kts | 278° |
| 2026-04-24 16:55 | 56.55193 | -24.45908 | 34049 ft | 561 kts | 278° |
| 2026-04-24 16:55 | 56.56634 | -24.59812 | 34059 ft | 561 kts | 278° |
| 2026-04-24 16:56 | 56.58058 | -24.73716 | 34055 ft | 561 kts | 278° |
| 2026-04-24 16:56 | 56.59466 | -24.87624 | 34052 ft | 560 kts | 278° |
| 2026-04-24 16:57 | 56.60858 | -25.01539 | 34058 ft | 560 kts | 277° |
| 2026-04-24 16:57 | 56.62234 | -25.15455 | 34089 ft | 560 kts | 277° |
| 2026-04-24 16:58 | 56.63594 | -25.29387 | 34051 ft | 560 kts | 277° |
| 2026-04-24 16:58 | 56.64940 | -25.43334 | 34050 ft | 560 kts | 277° |
| 2026-04-24 16:59 | 56.66270 | -25.57287 | 34047 ft | 560 kts | 277° |
| 2026-04-24 17:00 | 56.68231 | -25.78194 | 34038 ft | 558 kts | 277° |
| 2026-04-24 17:00 | 56.70154 | -25.99079 | 34059 ft | 559 kts | 277° |
| 2026-04-24 17:01 | 56.72042 | -26.19997 | 34043 ft | 558 kts | 277° |
| 2026-04-24 17:02 | 56.73895 | -26.40928 | 34039 ft | 558 kts | 276° |
| 2026-04-24 17:02 | 56.75110 | -26.54891 | 34027 ft | 558 kts | 276° |
| 2026-04-24 17:03 | 56.76903 | -26.75845 | 34044 ft | 557 kts | 276° |
| 2026-04-24 17:04 | 56.78078 | -26.89807 | 34031 ft | 557 kts | 276° |
| 2026-04-24 17:04 | 56.79811 | -27.10772 | 34038 ft | 557 kts | 276° |
| 2026-04-24 17:05 | 56.80938 | -27.24659 | 34032 ft | 557 kts | 276° |
| 2026-04-24 17:06 | 56.82620 | -27.45751 | 34037 ft | 558 kts | 276° |
| 2026-04-24 17:06 | 56.84261 | -27.66787 | 34039 ft | 557 kts | 276° |
| 2026-04-24 17:07 | 56.85332 | -27.80784 | 34034 ft | 556 kts | 276° |
| 2026-04-24 17:08 | 56.87426 | -28.08790 | 34048 ft | 556 kts | 275° |
| 2026-04-24 17:08 | 56.88444 | -28.22732 | 34048 ft | 558 kts | 275° |
| 2026-04-24 17:09 | 56.90292 | -28.48601 | 34027 ft | 557 kts | 275° |
| 2026-04-24 17:10 | 56.92233 | -28.76652 | 34063 ft | 555 kts | 275° |
| 2026-04-24 17:12 | 56.95926 | -29.32860 | 34027 ft | 556 kts | 275° |
| 2026-04-24 18:54 | 54.32700 | -56.07745 | 34093 ft | 521 kts | 241° |
| 2026-04-24 18:55 | 54.27552 | -56.24157 | 34112 ft | 521 kts | 241° |
| 2026-04-24 18:56 | 54.24113 | -56.35056 | 34111 ft | 520 kts | 240° |
| 2026-04-24 18:56 | 54.20670 | -56.45917 | 34102 ft | 519 kts | 240° |
| 2026-04-24 18:57 | 54.17222 | -56.56749 | 34101 ft | 519 kts | 240° |
| 2026-04-24 18:57 | 54.13785 | -56.67494 | 34109 ft | 519 kts | 240° |
| 2026-04-24 18:58 | 54.10318 | -56.78290 | 34111 ft | 519 kts | 240° |
| 2026-04-24 18:58 | 54.06839 | -56.89080 | 34112 ft | 519 kts | 240° |
| 2026-04-24 18:59 | 54.03111 | -56.99579 | 34101 ft | 518 kts | 232° |
| 2026-04-24 18:59 | 53.98400 | -57.08781 | 34106 ft | 515 kts | 223° |
| 2026-04-24 19:00 | 53.93340 | -57.17401 | 34109 ft | 516 kts | 223° |
| 2026-04-24 19:00 | 53.88291 | -57.26056 | 34136 ft | 517 kts | 223° |
| 2026-04-24 19:01 | 53.83242 | -57.34756 | 34128 ft | 518 kts | 223° |
| 2026-04-24 19:01 | 53.78182 | -57.43467 | 34119 ft | 519 kts | 223° |
| 2026-04-24 19:02 | 53.73962 | -57.50709 | 34120 ft | 520 kts | 223° |
| 2026-04-24 19:02 | 53.68012 | -57.60875 | 34130 ft | 521 kts | 222° |
| 2026-04-24 19:03 | 53.62906 | -57.69563 | 34119 ft | 522 kts | 222° |
| 2026-04-24 19:03 | 53.57786 | -57.78241 | 34112 ft | 522 kts | 222° |
| 2026-04-24 19:04 | 53.52662 | -57.86895 | 34102 ft | 522 kts | 222° |
| 2026-04-24 19:04 | 53.47537 | -57.95519 | 34112 ft | 522 kts | 221° |
| 2026-04-24 19:05 | 53.42395 | -58.04141 | 34089 ft | 522 kts | 221° |
| 2026-04-24 19:05 | 53.37251 | -58.12734 | 34105 ft | 522 kts | 221° |
| 2026-04-24 19:06 | 53.32098 | -58.21313 | 34085 ft | 522 kts | 221° |
| 2026-04-24 19:06 | 53.26937 | -58.29872 | 34091 ft | 523 kts | 221° |
| 2026-04-24 19:07 | 53.21760 | -58.38429 | 34091 ft | 524 kts | 221° |
| 2026-04-24 19:07 | 53.17442 | -58.45541 | 34090 ft | 525 kts | 221° |
| 2026-04-24 19:08 | 53.11352 | -58.55537 | 34116 ft | 526 kts | 220° |
| 2026-04-24 19:08 | 53.06120 | -58.64091 | 34093 ft | 528 kts | 220° |
| 2026-04-24 19:09 | 53.00860 | -58.72660 | 34077 ft | 530 kts | 220° |
| 2026-04-24 19:09 | 52.95588 | -58.81217 | 34078 ft | 531 kts | 220° |
| 2026-04-24 19:10 | 52.90295 | -58.89781 | 34083 ft | 532 kts | 220° |
| 2026-04-24 19:10 | 52.84983 | -58.98339 | 34075 ft | 534 kts | 220° |
| 2026-04-24 19:11 | 52.79653 | -59.06896 | 34059 ft | 534 kts | 219° |
| 2026-04-24 19:11 | 52.74312 | -59.15440 | 34066 ft | 534 kts | 219° |
| 2026-04-24 19:12 | 52.68965 | -59.23966 | 34062 ft | 535 kts | 219° |
| 2026-04-24 19:12 | 52.63636 | -59.32431 | 34054 ft | 536 kts | 219° |
| 2026-04-24 19:13 | 52.59131 | -59.39564 | 34052 ft | 536 kts | 219° |
| 2026-04-24 19:13 | 52.52870 | -59.49443 | 34076 ft | 537 kts | 219° |
| 2026-04-24 19:14 | 52.47470 | -59.57930 | 34049 ft | 538 kts | 219° |
| 2026-04-24 19:14 | 52.42063 | -59.66395 | 34040 ft | 538 kts | 219° |
| 2026-04-24 19:15 | 52.36638 | -59.74859 | 34038 ft | 538 kts | 219° |
| 2026-04-24 19:15 | 52.31208 | -59.83302 | 34039 ft | 539 kts | 219° |
| 2026-04-24 19:16 | 52.23959 | -59.94526 | 34033 ft | 540 kts | 218° |
| 2026-04-24 19:16 | 52.18498 | -60.02946 | 34026 ft | 540 kts | 218° |
| 2026-04-24 19:17 | 52.13035 | -60.11339 | 34026 ft | 540 kts | 218° |
| 2026-04-24 19:17 | 52.07559 | -60.19724 | 34016 ft | 540 kts | 218° |
| 2026-04-24 19:18 | 52.02084 | -60.28077 | 34021 ft | 540 kts | 218° |
| 2026-04-24 19:18 | 51.96603 | -60.36409 | 34026 ft | 540 kts | 218° |
| 2026-04-24 19:19 | 51.91110 | -60.44729 | 34013 ft | 540 kts | 218° |
| 2026-04-24 19:19 | 51.85612 | -60.53028 | 34021 ft | 540 kts | 218° |
| 2026-04-24 19:20 | 51.80114 | -60.61300 | 34022 ft | 540 kts | 218° |
| 2026-04-24 19:20 | 51.74610 | -60.69550 | 34031 ft | 540 kts | 218° |
| 2026-04-24 19:21 | 51.69094 | -60.77789 | 34017 ft | 541 kts | 218° |
| 2026-04-24 19:21 | 51.63560 | -60.86026 | 34009 ft | 541 kts | 218° |
| 2026-04-24 19:22 | 51.58026 | -60.94236 | 34010 ft | 541 kts | 218° |
| 2026-04-24 19:22 | 51.52476 | -61.02441 | 34014 ft | 543 kts | 218° |
| 2026-04-24 19:23 | 51.46910 | -61.10641 | 33984 ft | 543 kts | 218° |
| 2026-04-24 19:23 | 51.41335 | -61.18825 | 33975 ft | 544 kts | 218° |
| 2026-04-24 19:24 | 51.35753 | -61.26991 | 33991 ft | 544 kts | 218° |
| 2026-04-24 19:24 | 51.30163 | -61.35141 | 33979 ft | 544 kts | 218° |
| 2026-04-24 19:25 | 51.24572 | -61.43268 | 33987 ft | 543 kts | 218° |
| 2026-04-24 19:25 | 51.18979 | -61.51366 | 33995 ft | 543 kts | 218° |
| 2026-04-24 19:26 | 51.13382 | -61.59443 | 33981 ft | 543 kts | 218° |
| 2026-04-24 19:26 | 51.07777 | -61.67502 | 33971 ft | 542 kts | 218° |
| 2026-04-24 19:27 | 51.02181 | -61.75523 | 33964 ft | 541 kts | 218° |
| 2026-04-24 19:27 | 50.96583 | -61.83519 | 33969 ft | 541 kts | 218° |
| 2026-04-24 19:28 | 50.90977 | -61.91498 | 33962 ft | 541 kts | 218° |
| 2026-04-24 19:28 | 50.85383 | -61.99436 | 33962 ft | 540 kts | 218° |
| 2026-04-24 19:29 | 50.76979 | -62.11311 | 33956 ft | 540 kts | 218° |
| 2026-04-24 19:30 | 50.71368 | -62.19204 | 33946 ft | 540 kts | 218° |
| 2026-04-24 19:30 | 50.65753 | -62.27075 | 33945 ft | 540 kts | 218° |
| 2026-04-24 19:31 | 50.60139 | -62.34920 | 33967 ft | 540 kts | 218° |
| 2026-04-24 19:31 | 50.54519 | -62.42750 | 33955 ft | 540 kts | 218° |
| 2026-04-24 19:32 | 50.48889 | -62.50566 | 33946 ft | 540 kts | 218° |
| 2026-04-24 19:32 | 50.43250 | -62.58368 | 33961 ft | 540 kts | 218° |
| 2026-04-24 19:33 | 50.37610 | -62.66146 | 33949 ft | 540 kts | 218° |
| 2026-04-24 19:33 | 50.31963 | -62.73909 | 33941 ft | 540 kts | 218° |
| 2026-04-24 19:34 | 50.26310 | -62.81654 | 33934 ft | 540 kts | 218° |
| 2026-04-24 19:34 | 50.20650 | -62.89382 | 33949 ft | 541 kts | 218° |
| 2026-04-24 19:35 | 50.14976 | -62.97106 | 33947 ft | 541 kts | 218° |
| 2026-04-24 19:35 | 50.09331 | -63.04765 | 33946 ft | 542 kts | 218° |
| 2026-04-24 19:36 | 50.03657 | -63.12437 | 33963 ft | 542 kts | 218° |
| 2026-04-24 19:36 | 49.97950 | -63.20131 | 33957 ft | 543 kts | 218° |
| 2026-04-24 19:37 | 49.92232 | -63.27812 | 33963 ft | 543 kts | 218° |
| 2026-04-24 19:37 | 49.86514 | -63.35468 | 33969 ft | 543 kts | 218° |
| 2026-04-24 19:38 | 49.80791 | -63.43106 | 33962 ft | 543 kts | 218° |
| 2026-04-24 19:38 | 49.75062 | -63.50731 | 33966 ft | 543 kts | 218° |
| 2026-04-24 19:39 | 49.69329 | -63.58335 | 33964 ft | 543 kts | 218° |
| 2026-04-24 19:39 | 49.63592 | -63.65918 | 33967 ft | 543 kts | 218° |
| 2026-04-24 19:40 | 49.57811 | -63.73534 | 33949 ft | 543 kts | 218° |
| 2026-04-24 19:40 | 49.52107 | -63.81026 | 33967 ft | 542 kts | 218° |
| 2026-04-24 19:41 | 49.46363 | -63.88545 | 33956 ft | 542 kts | 218° |
| 2026-04-24 19:41 | 49.40623 | -63.96037 | 33971 ft | 542 kts | 218° |
| 2026-04-24 19:42 | 49.35030 | -64.03313 | 33971 ft | 542 kts | 218° |
| 2026-04-24 19:42 | 49.29265 | -64.10789 | 33982 ft | 543 kts | 219° |
| 2026-04-24 19:43 | 49.23499 | -64.18245 | 33979 ft | 543 kts | 218° |
| 2026-04-24 19:43 | 49.17728 | -64.25681 | 33978 ft | 543 kts | 218° |
| 2026-04-24 19:44 | 49.11941 | -64.33115 | 33980 ft | 543 kts | 219° |
| 2026-04-24 19:44 | 49.06159 | -64.40518 | 33981 ft | 543 kts | 219° |
| 2026-04-24 19:45 | 49.00366 | -64.47915 | 33981 ft | 543 kts | 219° |
| 2026-04-24 19:45 | 48.94573 | -64.55288 | 33978 ft | 543 kts | 219° |
| 2026-04-24 19:46 | 48.88769 | -64.62649 | 33976 ft | 543 kts | 219° |
| 2026-04-24 19:46 | 48.82957 | -64.69999 | 33969 ft | 543 kts | 219° |
| 2026-04-24 19:47 | 48.77147 | -64.77324 | 33973 ft | 543 kts | 219° |
| 2026-04-24 19:47 | 48.71329 | -64.84637 | 33953 ft | 543 kts | 219° |
| 2026-04-24 19:48 | 48.65502 | -64.91937 | 33964 ft | 544 kts | 219° |
| 2026-04-24 19:48 | 48.56741 | -65.02869 | 33960 ft | 545 kts | 219° |
| 2026-04-24 19:49 | 48.45010 | -65.17432 | 33959 ft | 547 kts | 219° |
| 2026-04-24 19:50 | 48.33246 | -65.31944 | 33955 ft | 547 kts | 219° |
| 2026-04-24 19:51 | 48.24415 | -65.42778 | 33961 ft | 546 kts | 219° |
| 2026-04-24 19:52 | 48.15578 | -65.53571 | 33956 ft | 546 kts | 219° |
| 2026-04-24 19:52 | 48.09683 | -65.60745 | 33955 ft | 546 kts | 219° |
| 2026-04-24 19:53 | 48.03786 | -65.67897 | 33953 ft | 546 kts | 219° |
| 2026-04-24 19:54 | 47.94931 | -65.78597 | 33955 ft | 546 kts | 219° |
| 2026-04-24 19:54 | 47.89028 | -65.85703 | 33960 ft | 545 kts | 219° |
| 2026-04-24 19:55 | 47.85076 | -65.90449 | 33958 ft | 546 kts | 219° |
| 2026-04-24 19:55 | 47.77199 | -65.99879 | 33962 ft | 546 kts | 219° |
| 2026-04-24 19:56 | 47.71277 | -66.06944 | 33964 ft | 546 kts | 219° |
| 2026-04-24 19:56 | 47.66353 | -66.12802 | 33960 ft | 546 kts | 219° |
| 2026-04-24 19:57 | 47.60425 | -66.19834 | 33958 ft | 546 kts | 219° |
| 2026-04-24 19:57 | 47.54483 | -66.26864 | 33946 ft | 546 kts | 219° |
| 2026-04-24 19:58 | 47.48539 | -66.33874 | 33937 ft | 546 kts | 219° |
| 2026-04-24 19:58 | 47.42591 | -66.40868 | 33937 ft | 546 kts | 219° |
| 2026-04-24 19:59 | 47.36639 | -66.47846 | 33943 ft | 546 kts | 219° |
| 2026-04-24 19:59 | 47.30689 | -66.54801 | 33939 ft | 546 kts | 219° |
| 2026-04-24 20:00 | 47.24732 | -66.61744 | 33942 ft | 546 kts | 220° |
| 2026-04-24 20:00 | 47.18809 | -66.68626 | 33902 ft | 546 kts | 220° |
| 2026-04-24 20:01 | 47.12849 | -66.75529 | 33942 ft | 545 kts | 220° |
| 2026-04-24 20:01 | 47.06889 | -66.82418 | 33934 ft | 545 kts | 220° |
| 2026-04-24 20:02 | 47.00922 | -66.89294 | 33941 ft | 545 kts | 220° |
| 2026-04-24 20:02 | 46.94955 | -66.96150 | 33942 ft | 546 kts | 220° |
| 2026-04-24 20:03 | 46.89033 | -67.03082 | 33936 ft | 544 kts | 225° |
| 2026-04-24 20:03 | 46.83857 | -67.11032 | 33941 ft | 537 kts | 236° |
| 2026-04-24 20:04 | 46.79277 | -67.19661 | 33942 ft | 537 kts | 236° |
| 2026-04-24 20:04 | 46.74664 | -67.28250 | 33936 ft | 538 kts | 236° |
| 2026-04-24 20:05 | 46.70014 | -67.36794 | 33954 ft | 538 kts | 235° |
| 2026-04-24 20:05 | 46.65350 | -67.45307 | 33945 ft | 538 kts | 235° |
| 2026-04-24 20:06 | 46.60679 | -67.53808 | 33945 ft | 537 kts | 235° |
| 2026-04-24 20:06 | 46.56008 | -67.62289 | 33949 ft | 537 kts | 235° |
| 2026-04-24 20:07 | 46.52121 | -67.69329 | 33924 ft | 537 kts | 235° |
| 2026-04-24 20:07 | 46.46655 | -67.79196 | 33954 ft | 536 kts | 235° |
| 2026-04-24 20:08 | 46.41987 | -67.87598 | 33952 ft | 534 kts | 234° |
| 2026-04-24 20:08 | 46.37323 | -67.95965 | 33951 ft | 533 kts | 234° |
| 2026-04-24 20:09 | 46.32662 | -68.04302 | 33979 ft | 532 kts | 234° |
| 2026-04-24 20:09 | 46.28000 | -68.12617 | 33973 ft | 531 kts | 235° |
| 2026-04-24 20:10 | 46.23350 | -68.20886 | 33988 ft | 530 kts | 235° |
| 2026-04-24 20:10 | 46.18703 | -68.29123 | 33994 ft | 529 kts | 234° |
| 2026-04-24 20:11 | 46.14056 | -68.37339 | 33996 ft | 528 kts | 234° |
| 2026-04-24 20:11 | 46.09410 | -68.45526 | 33985 ft | 527 kts | 235° |
| 2026-04-24 20:12 | 46.04773 | -68.53674 | 33989 ft | 526 kts | 235° |
| 2026-04-24 20:12 | 46.00131 | -68.61809 | 33981 ft | 526 kts | 235° |
| 2026-04-24 20:13 | 45.95473 | -68.69946 | 33968 ft | 527 kts | 235° |
| 2026-04-24 20:13 | 45.90807 | -68.78075 | 33978 ft | 528 kts | 235° |
| 2026-04-24 20:14 | 45.86127 | -68.86203 | 33975 ft | 528 kts | 235° |
| 2026-04-24 20:14 | 45.81439 | -68.94320 | 33959 ft | 528 kts | 235° |
| 2026-04-24 20:15 | 45.76742 | -69.02429 | 33973 ft | 528 kts | 235° |
| 2026-04-24 20:15 | 45.72043 | -69.10521 | 33970 ft | 529 kts | 235° |
| 2026-04-24 20:16 | 45.67336 | -69.18601 | 33964 ft | 529 kts | 235° |
| 2026-04-24 20:16 | 45.62624 | -69.26667 | 33928 ft | 528 kts | 235° |
| 2026-04-24 20:17 | 45.57910 | -69.34712 | 33951 ft | 527 kts | 235° |
| 2026-04-24 20:17 | 45.50844 | -69.46727 | 33936 ft | 527 kts | 235° |
| 2026-04-24 20:18 | 45.46132 | -69.54713 | 33952 ft | 525 kts | 236° |
| 2026-04-24 20:18 | 45.41427 | -69.62665 | 33952 ft | 524 kts | 235° |
| 2026-04-24 20:19 | 45.36726 | -69.70587 | 33943 ft | 524 kts | 235° |
| 2026-04-24 20:19 | 45.32059 | -69.78425 | 33938 ft | 523 kts | 236° |
| 2026-04-24 20:20 | 45.27359 | -69.86302 | 33948 ft | 522 kts | 236° |
| 2026-04-24 20:20 | 45.22663 | -69.94151 | 33954 ft | 521 kts | 236° |
| 2026-04-24 20:21 | 45.17963 | -70.01982 | 33926 ft | 521 kts | 236° |
| 2026-04-24 20:21 | 45.13265 | -70.09786 | 33943 ft | 520 kts | 236° |
| 2026-04-24 20:22 | 45.08571 | -70.17565 | 33950 ft | 520 kts | 236° |
| 2026-04-24 20:22 | 45.03869 | -70.25335 | 33942 ft | 519 kts | 236° |
| 2026-04-24 20:23 | 44.99172 | -70.33074 | 33943 ft | 518 kts | 236° |
| 2026-04-24 20:23 | 44.94473 | -70.40795 | 33955 ft | 518 kts | 236° |
| 2026-04-24 20:24 | 44.89735 | -70.48563 | 33942 ft | 519 kts | 236° |
| 2026-04-24 20:24 | 44.85020 | -70.56271 | 33930 ft | 519 kts | 236° |
| 2026-04-24 20:25 | 44.80332 | -70.63912 | 33931 ft | 519 kts | 236° |
| 2026-04-24 20:25 | 44.75576 | -70.71641 | 33931 ft | 518 kts | 237° |
| 2026-04-24 20:26 | 44.70857 | -70.79288 | 33923 ft | 517 kts | 237° |
| 2026-04-24 20:26 | 44.66176 | -70.86850 | 33924 ft | 516 kts | 237° |
| 2026-04-24 20:27 | 44.61437 | -70.94496 | 33925 ft | 515 kts | 237° |
| 2026-04-24 20:27 | 44.56759 | -71.02023 | 33896 ft | 515 kts | 237° |
| 2026-04-24 20:28 | 44.52048 | -71.09573 | 33933 ft | 514 kts | 237° |
| 2026-04-24 20:28 | 44.47311 | -71.17149 | 33924 ft | 513 kts | 237° |
| 2026-04-24 20:29 | 44.42613 | -71.24646 | 33921 ft | 512 kts | 237° |
| 2026-04-24 20:29 | 44.37922 | -71.32103 | 33927 ft | 509 kts | 237° |
| 2026-04-24 20:30 | 44.33244 | -71.39528 | 33898 ft | 509 kts | 237° |
| 2026-04-24 20:30 | 44.28588 | -71.46901 | 33930 ft | 509 kts | 237° |
| 2026-04-24 20:31 | 44.24882 | -71.52753 | 33946 ft | 509 kts | 237° |
| 2026-04-24 20:31 | 44.20290 | -71.59982 | 33946 ft | 510 kts | 237° |
| 2026-04-24 20:32 | 44.15573 | -71.67399 | 33935 ft | 512 kts | 237° |
| 2026-04-24 20:32 | 44.10847 | -71.74803 | 33932 ft | 511 kts | 237° |
| 2026-04-24 20:33 | 44.06136 | -71.82167 | 33925 ft | 510 kts | 237° |
| 2026-04-24 20:33 | 44.01487 | -71.89413 | 33930 ft | 510 kts | 237° |
| 2026-04-24 20:34 | 43.96762 | -71.96761 | 33922 ft | 510 kts | 237° |
| 2026-04-24 20:34 | 43.92342 | -72.03618 | 33920 ft | 508 kts | 236° |
| 2026-04-24 20:35 | 43.87629 | -72.10914 | 33921 ft | 507 kts | 236° |
| 2026-04-24 20:35 | 43.82920 | -72.18179 | 33933 ft | 507 kts | 236° |
| 2026-04-24 20:36 | 43.78207 | -72.25435 | 33901 ft | 507 kts | 236° |
| 2026-04-24 20:36 | 43.73492 | -72.32675 | 33916 ft | 506 kts | 235° |
| 2026-04-24 20:37 | 43.68773 | -72.39901 | 33924 ft | 506 kts | 235° |
| 2026-04-24 20:37 | 43.64847 | -72.45899 | 33922 ft | 506 kts | 235° |
| 2026-04-24 20:38 | 43.60117 | -72.53109 | 33916 ft | 506 kts | 235° |
| 2026-04-24 20:38 | 43.55382 | -72.60310 | 33885 ft | 506 kts | 235° |
| 2026-04-24 20:39 | 43.50647 | -72.67494 | 33903 ft | 506 kts | 234° |
| 2026-04-24 20:39 | 43.45910 | -72.74660 | 33939 ft | 506 kts | 234° |
| 2026-04-24 20:40 | 43.41485 | -72.81338 | 33938 ft | 506 kts | 234° |
| 2026-04-24 20:40 | 43.36735 | -72.88491 | 33932 ft | 506 kts | 234° |
| 2026-04-24 20:41 | 43.31978 | -72.95635 | 33876 ft | 506 kts | 234° |
| 2026-04-24 20:41 | 43.27228 | -73.02752 | 33913 ft | 505 kts | 234° |
| 2026-04-24 20:42 | 43.22477 | -73.09851 | 33928 ft | 505 kts | 234° |
| 2026-04-24 20:42 | 43.17720 | -73.16940 | 33925 ft | 505 kts | 233° |
| 2026-04-24 20:43 | 43.12965 | -73.24014 | 33931 ft | 504 kts | 234° |
| 2026-04-24 20:43 | 43.08204 | -73.31077 | 33898 ft | 505 kts | 234° |
| 2026-04-24 20:44 | 43.03436 | -73.38134 | 33918 ft | 505 kts | 233° |
| 2026-04-24 20:44 | 42.98657 | -73.45187 | 33934 ft | 506 kts | 234° |
| 2026-04-24 20:45 | 42.93866 | -73.52243 | 33932 ft | 507 kts | 234° |
| 2026-04-24 20:45 | 42.89070 | -73.59289 | 33920 ft | 507 kts | 234° |
| 2026-04-24 20:46 | 42.84260 | -73.66337 | 33878 ft | 507 kts | 236° |
| 2026-04-24 20:46 | 42.79457 | -73.73362 | 33920 ft | 506 kts | 236° |
| 2026-04-24 20:47 | 42.74782 | -73.80485 | 33916 ft | 500 kts | 242° |
| 2026-04-24 20:47 | 42.71092 | -73.88241 | 33920 ft | 488 kts | 249° |
| 2026-04-24 20:48 | 42.67636 | -73.96212 | 33929 ft | 489 kts | 249° |
| 2026-04-24 20:48 | 42.64142 | -74.04143 | 33909 ft | 489 kts | 249° |
| 2026-04-24 20:49 | 42.60602 | -74.12109 | 33929 ft | 490 kts | 249° |
| 2026-04-24 20:49 | 42.57094 | -74.19972 | 33932 ft | 491 kts | 249° |
| 2026-04-24 20:50 | 42.53524 | -74.27948 | 33905 ft | 491 kts | 249° |
| 2026-04-24 20:50 | 42.50000 | -74.35808 | 33861 ft | 491 kts | 249° |
| 2026-04-24 20:51 | 42.46449 | -74.43703 | 33901 ft | 490 kts | 249° |
| 2026-04-24 20:51 | 42.42898 | -74.51582 | 33898 ft | 490 kts | 249° |
| 2026-04-24 20:52 | 42.39341 | -74.59453 | 33902 ft | 490 kts | 249° |
| 2026-04-24 20:52 | 42.35783 | -74.67300 | 33888 ft | 490 kts | 249° |
| 2026-04-24 20:53 | 42.32222 | -74.75151 | 33890 ft | 490 kts | 249° |